Decoded Metar for PGSN (SAIPAN in MARIANA ISLANDS) (IATA:SPN) | Meteo·Mobile Aviation Weather
aviador You're here:

PGSN Decoded Metar

SAIPAN in MARIANA ISLANDS
Report Time2019-05-19 21:54:00
UTC Time2019-05-19 22:27:58
Flight Rules vfr VFR
Wind190° at 09 kt
W.Decomp.*RWY 24: 5.5 kt HW 7.1 kt LCW
RWY 25: 4.2 kt HW 7.9 kt LCW
Visibility9999 m
Phenomena:N/A
Clouds:Few 018 Hf
Scattered 026 Hf
Expected CloudBase > 2,400 ft AGL from Temp-Dew spread
CeilingNone
Temp29°C (ISA +14)
Dew Point23°C (70% RH)
Heat Index32.7°C
QNH1010 hPa
Density Alt2,339 ft
Elevation213 ft
Report Wrong Elevation
Raw Report
PGSN 192154Z 19009KT 10SM FEW018 SCT026 29/23 A2983 RMK AO2 SLP122
T02890233=

Extra information for PGSN:More info

Metar Taf Metar & Taf Last 4 Metars F.Rules Stats Wind Profile Meteogram Temp Stats Airport Information Weather charts Add Link Nearby VenuesMetar ALERT Operation Metar Decoded Social comments